createdAt,value
2018-11-02T00:01:21.732Z,13.03
2018-11-02T00:03:50.435Z,15.53
2018-11-02T00:06:19.089Z,14.10
2018-11-02T00:08:47.844Z,15.17
2018-11-02T00:11:16.671Z,13.47
2018-11-02T00:13:45.394Z,15.30
2018-11-02T00:16:14.296Z,15.17
2018-11-02T00:18:43.015Z,14.03
2018-11-02T00:21:11.684Z,12.97
2018-11-02T00:23:40.484Z,13.97
2018-11-02T00:26:09.152Z,14.83
2018-11-02T00:28:38.763Z,14.57
2018-11-02T00:31:07.402Z,13.43
2018-11-02T00:33:36.121Z,15.10
2018-11-02T00:36:05.063Z,14.23
2018-11-02T00:38:33.772Z,12.70
2018-11-02T00:41:02.531Z,14.13
2018-11-02T00:43:31.228Z,12.27
2018-11-02T00:45:59.937Z,13.60
2018-11-02T00:48:28.552Z,12.30
2018-11-02T00:50:57.305Z,12.70
2018-11-02T00:53:26.096Z,14.33
2018-11-02T00:55:54.770Z,14.67
2018-11-02T00:58:23.492Z,13.20
2018-11-02T01:00:52.053Z,11.77
2018-11-02T01:03:20.838Z,13.17
2018-11-02T01:05:49.740Z,12.90
2018-11-02T01:08:18.372Z,13.10
2018-11-02T01:10:47.478Z,12.03
2018-11-02T01:13:16.306Z,11.13
2018-11-02T01:15:45.550Z,12.57
2018-11-02T01:18:15.285Z,10.53
2018-11-02T01:20:44.433Z,12.00
2018-11-02T01:23:13.042Z,10.33
2018-11-02T01:25:44.637Z,11.70
2018-11-02T01:28:13.338Z,9.87
2018-11-02T01:30:42.164Z,11.60
2018-11-02T01:33:11.061Z,10.23
2018-11-02T01:35:39.905Z,10.30
2018-11-02T01:38:08.823Z,10.00
2018-11-02T01:40:37.738Z,10.40
2018-11-02T01:43:07.427Z,8.73
2018-11-02T01:45:36.119Z,9.27
2018-11-02T01:48:04.992Z,9.00
2018-11-02T01:50:33.671Z,8.33
2018-11-02T01:53:02.308Z,10.20
2018-11-02T01:55:31.093Z,8.70
2018-11-02T01:57:59.887Z,7.77
2018-11-02T02:00:28.559Z,8.60
2018-11-02T02:02:57.291Z,8.43
2018-11-02T02:05:25.901Z,8.50
2018-11-02T02:07:54.621Z,8.63
2018-11-02T02:10:23.380Z,8.80
2018-11-02T02:12:51.994Z,7.27
2018-11-02T02:15:20.668Z,7.40
2018-11-02T02:17:49.247Z,9.27
2018-11-02T02:20:17.876Z,6.03
2018-11-02T02:22:46.559Z,7.50
2018-11-02T02:25:15.255Z,6.00
2018-11-02T02:27:51.483Z,6.37
2018-11-02T02:30:20.756Z,7.23
2018-11-02T02:32:49.323Z,5.33
2018-11-02T02:35:18.103Z,6.20
2018-11-02T02:37:46.763Z,6.93
2018-11-02T02:40:16.148Z,5.83
2018-11-02T02:42:44.772Z,6.23
2018-11-02T02:45:13.640Z,6.37
2018-11-02T02:47:42.284Z,6.30
2018-11-02T02:50:13.516Z,7.00
2018-11-02T02:52:43.054Z,6.80
2018-11-02T02:55:11.723Z,6.63
2018-11-02T02:57:40.252Z,6.70
2018-11-02T03:00:11.422Z,7.70
2018-11-02T03:02:40.160Z,5.70
2018-11-02T03:05:09.094Z,6.77
2018-11-02T03:07:37.665Z,6.50
2018-11-02T03:10:06.858Z,7.67
2018-11-02T03:12:35.471Z,7.77
2018-11-02T03:15:04.441Z,6.57
2018-11-02T03:17:33.072Z,6.17
2018-11-02T03:20:01.771Z,6.47
2018-11-02T03:22:30.389Z,6.13
2018-11-02T03:24:59.080Z,7.70
2018-11-02T03:27:27.675Z,7.43
2018-11-02T03:29:56.461Z,6.70
2018-11-02T03:32:25.097Z,7.93
2018-11-02T03:34:53.680Z,7.20
2018-11-02T03:37:22.362Z,7.27
2018-11-02T03:39:52.189Z,9.43
2018-11-02T03:42:20.793Z,7.30
2018-11-02T03:44:49.479Z,8.00
2018-11-02T03:47:18.177Z,8.23
2018-11-02T03:49:46.818Z,8.70
2018-11-02T03:52:15.497Z,9.90
2018-11-02T03:54:44.179Z,8.83
2018-11-02T03:57:12.813Z,9.30
2018-11-02T03:59:41.512Z,8.93
2018-11-02T04:02:10.126Z,9.70
2018-11-02T04:04:38.804Z,10.03
2018-11-02T04:07:07.391Z,10.60
2018-11-02T04:09:36.164Z,11.83
2018-11-02T04:12:04.772Z,10.90
2018-11-02T04:14:33.477Z,10.77
2018-11-02T04:17:02.247Z,11.70
2018-11-02T04:19:31.024Z,13.90
2018-11-02T04:21:59.639Z,11.13
2018-11-02T04:24:28.405Z,12.17
2018-11-02T04:26:57.014Z,11.70
2018-11-02T04:29:25.706Z,11.10
2018-11-02T04:31:54.531Z,10.47
2018-11-02T04:34:23.321Z,11.80
2018-11-02T04:36:52.038Z,12.47
2018-11-02T04:39:20.719Z,12.13
2018-11-02T04:41:49.396Z,11.07
2018-11-02T04:44:18.168Z,11.40
2018-11-02T04:46:46.843Z,11.67
2018-11-02T04:49:15.724Z,12.97
2018-11-02T04:51:44.396Z,16.17
2018-11-02T04:54:12.994Z,13.10
2018-11-02T04:56:41.823Z,12.90
2018-11-02T04:59:10.797Z,11.57
2018-11-02T05:01:39.643Z,11.20
2018-11-02T05:04:08.324Z,13.80
2018-11-02T05:06:36.980Z,14.17
2018-11-02T05:09:07.872Z,14.00
2018-11-02T05:11:36.832Z,14.20
2018-11-02T05:14:05.600Z,13.80
2018-11-02T05:16:34.307Z,16.00
2018-11-02T05:19:03.050Z,14.97
2018-11-02T05:21:31.855Z,13.17
2018-11-02T05:24:00.774Z,15.00
2018-11-02T05:26:29.436Z,15.20
2018-11-02T05:28:58.050Z,16.47
2018-11-02T05:31:26.776Z,15.33
2018-11-02T05:33:55.460Z,16.43
2018-11-02T05:36:24.175Z,17.67
2018-11-02T05:38:52.829Z,18.90
2018-11-02T05:41:21.523Z,18.07
2018-11-02T05:43:50.168Z,16.70
2018-11-02T05:46:18.930Z,19.10
2018-11-02T05:48:47.646Z,18.37
2018-11-02T05:51:16.387Z,20.80
2018-11-02T05:53:44.954Z,20.23
2018-11-02T05:56:13.687Z,21.90
2018-11-02T05:58:42.216Z,21.73
2018-11-02T06:01:10.978Z,22.23
2018-11-02T06:03:39.773Z,22.37
2018-11-02T06:06:08.478Z,21.70
2018-11-02T06:08:37.264Z,23.63
2018-11-02T06:11:06.425Z,22.97
2018-11-02T06:13:35.186Z,23.33
2018-11-02T06:16:03.970Z,21.53
2018-11-02T06:18:32.734Z,21.20
2018-11-02T06:21:01.323Z,23.00
2018-11-02T06:23:30.144Z,20.73
2018-11-02T06:25:58.785Z,22.37
2018-11-02T06:28:27.477Z,19.27
2018-11-02T06:30:56.204Z,20.73
2018-11-02T06:33:24.957Z,20.20
2018-11-02T06:35:53.648Z,19.03
2018-11-02T06:38:22.322Z,20.50
2018-11-02T06:40:51.014Z,21.57
2018-11-02T06:43:19.804Z,21.87
2018-11-02T06:45:48.700Z,20.13
2018-11-02T06:48:17.403Z,21.10
2018-11-02T06:50:46.140Z,20.97
2018-11-02T06:53:14.810Z,21.77
2018-11-02T06:55:43.556Z,18.80
2018-11-02T06:58:12.178Z,18.87
2018-11-02T07:00:42.943Z,19.33
2018-11-02T07:03:11.645Z,20.80
2018-11-02T07:05:40.430Z,21.90
2018-11-02T07:08:09.281Z,19.00
2018-11-02T07:10:37.705Z,19.63
2018-11-02T07:13:06.398Z,19.30
2018-11-02T07:15:35.044Z,21.00
2018-11-02T07:18:03.778Z,16.53
2018-11-02T07:20:32.583Z,18.60
2018-11-02T07:23:01.430Z,16.47
2018-11-02T07:25:30.060Z,14.70
2018-11-02T07:27:58.784Z,15.17
2018-11-02T07:30:32.015Z,16.60
2018-11-02T07:33:00.807Z,17.20
2018-11-02T07:35:29.372Z,19.73
2018-11-02T07:37:58.290Z,17.90
2018-11-02T07:40:26.982Z,18.17
2018-11-02T07:42:55.832Z,17.27
2018-11-02T07:45:24.526Z,17.13
2018-11-02T07:47:53.262Z,14.70
2018-11-02T07:50:22.093Z,16.23
2018-11-02T07:52:50.908Z,16.73
2018-11-02T07:55:19.560Z,16.13
2018-11-02T07:57:48.368Z,17.43
2018-11-02T08:00:17.955Z,17.47
2018-11-02T08:02:47.523Z,20.47
2018-11-02T08:05:16.813Z,17.20
2018-11-02T08:07:45.507Z,16.83
2018-11-02T08:10:14.257Z,19.27
2018-11-02T08:12:42.959Z,15.40
2018-11-02T08:15:12.668Z,19.50
2018-11-02T08:17:42.246Z,18.47
2018-11-02T08:20:12.326Z,20.17
2018-11-02T08:22:41.147Z,16.50
2018-11-02T08:25:10.885Z,17.73
2018-11-02T08:27:39.737Z,17.37
2018-11-02T08:30:09.267Z,15.30
2018-11-02T08:32:38.075Z,19.67
2018-11-02T08:35:08.796Z,18.73
2018-11-02T08:37:37.471Z,19.33
2018-11-02T08:40:07.133Z,17.50
2018-11-02T08:42:35.839Z,14.30
2018-11-02T08:45:04.576Z,15.63
2018-11-02T08:47:33.280Z,16.07
2018-11-02T08:50:02.012Z,14.90
2018-11-02T08:52:30.905Z,14.53
2018-11-02T08:54:59.507Z,13.80
2018-11-02T08:57:28.535Z,11.63
2018-11-02T08:59:57.354Z,12.07
2018-11-02T09:02:27.232Z,11.63
2018-11-02T09:04:56.089Z,12.77
2018-11-02T09:07:24.819Z,13.13
2018-11-02T09:09:53.669Z,10.00
2018-11-02T09:12:23.441Z,8.60
2018-11-02T09:14:52.115Z,8.30
2018-11-02T09:17:20.787Z,7.97
2018-11-02T09:19:49.452Z,8.20
2018-11-02T09:22:37.040Z,7.40
2018-11-02T09:25:07.136Z,9.20
2018-11-02T09:27:36.600Z,10.30
2018-11-02T09:30:08.036Z,9.27
2018-11-02T09:32:44.547Z,7.77
2018-11-02T09:35:14.024Z,7.13
2018-11-02T09:37:43.402Z,6.00
2018-11-02T09:40:12.712Z,7.97
2018-11-02T09:42:41.595Z,8.00
2018-11-02T09:45:13.127Z,7.90
2018-11-02T09:47:42.340Z,6.23
2018-11-02T09:50:11.669Z,7.27
2018-11-02T09:52:43.973Z,6.10
2018-11-02T09:55:14.973Z,6.37
2018-11-02T09:57:44.841Z,7.17
2018-11-02T10:00:14.469Z,5.63
2018-11-02T10:03:00.060Z,7.80
2018-11-02T10:05:28.811Z,6.50
2018-11-02T10:07:57.659Z,5.03
2018-11-02T10:10:26.382Z,5.03
2018-11-02T10:13:02.411Z,4.93
2018-11-02T10:15:31.092Z,5.00
2018-11-02T10:17:59.819Z,5.20
2018-11-02T10:20:28.534Z,6.00
2018-11-02T10:23:00.692Z,6.70
2018-11-02T10:25:29.519Z,6.00
2018-11-02T10:27:58.684Z,4.83
2018-11-02T10:30:27.647Z,4.90
2018-11-02T10:32:58.375Z,4.30
2018-11-02T10:35:27.329Z,5.37
2018-11-02T10:37:57.461Z,6.03
2018-11-02T10:40:26.305Z,5.43
2018-11-02T10:43:04.927Z,3.63
2018-11-02T10:45:35.507Z,3.50
2018-11-02T10:48:05.188Z,3.50
2018-11-02T10:50:33.944Z,4.30
2018-11-02T10:53:03.897Z,3.27
2018-11-02T10:55:32.586Z,4.03
2018-11-02T10:58:01.244Z,4.53
2018-11-02T11:00:35.101Z,3.80
2018-11-02T11:03:07.667Z,5.27
2018-11-02T11:05:36.450Z,4.67
2018-11-02T11:08:05.078Z,4.33
2018-11-02T11:10:33.716Z,4.13
2018-11-02T11:13:02.665Z,4.50
2018-11-02T11:15:31.235Z,4.97
2018-11-02T11:18:00.078Z,4.90
2018-11-02T11:20:28.788Z,3.83
2018-11-02T11:22:57.443Z,6.33
2018-11-02T11:25:26.184Z,6.80
2018-11-02T11:27:54.992Z,5.83
2018-11-02T11:30:23.761Z,7.23
2018-11-02T11:32:52.854Z,7.23
2018-11-02T11:35:21.586Z,8.37
2018-11-02T11:37:50.277Z,7.10
2018-11-02T11:40:21.139Z,6.70
2018-11-02T11:42:50.456Z,6.37
2018-11-02T11:45:19.918Z,7.30
2018-11-02T11:47:48.668Z,7.30
2018-11-02T11:50:19.547Z,9.10
2018-11-02T11:52:49.714Z,8.50
2018-11-02T11:55:18.536Z,7.10
2018-11-02T11:57:47.250Z,6.80
2018-11-02T12:00:18.055Z,7.77
2018-11-02T12:02:48.754Z,6.60
2018-11-02T12:05:19.675Z,6.30
2018-11-02T12:07:48.429Z,7.33
2018-11-02T12:10:21.415Z,4.87
2018-11-02T12:12:49.983Z,3.63
2018-11-02T12:15:19.904Z,5.27
2018-11-02T12:17:49.118Z,5.03
2018-11-02T12:20:19.357Z,3.17
2018-11-02T12:23:01.815Z,2.10
2018-11-02T12:25:30.516Z,3.90
2018-11-02T12:27:59.180Z,2.77
2018-11-02T12:30:27.812Z,3.63
2018-11-02T12:33:05.056Z,2.97
2018-11-02T12:35:38.190Z,2.77
2018-11-02T12:38:09.429Z,2.80
2018-11-02T12:40:38.947Z,3.30
2018-11-02T12:43:08.784Z,1.83
2018-11-02T12:45:37.765Z,2.80
2018-11-02T12:48:06.512Z,3.33
2018-11-02T12:50:35.098Z,2.87
2018-11-02T12:53:06.003Z,2.70
2018-11-02T12:55:34.596Z,2.70
2018-11-02T12:58:03.262Z,3.53
2018-11-02T13:00:31.947Z,3.00
2018-11-02T13:03:08.034Z,2.70
2018-11-02T13:05:36.712Z,2.60
2018-11-02T13:08:05.570Z,2.97
2018-11-02T13:10:35.526Z,3.33
2018-11-02T13:13:16.943Z,3.10
2018-11-02T13:15:45.629Z,2.50
2018-11-02T13:18:15.583Z,3.23
2018-11-02T13:20:44.124Z,2.70
2018-11-02T13:23:20.216Z,2.47
2018-11-02T13:25:48.906Z,4.17
2018-11-02T13:28:17.503Z,3.33
2018-11-02T13:30:46.289Z,3.50
2018-11-02T13:33:15.002Z,3.60
2018-11-02T13:35:43.695Z,4.47
2018-11-02T13:38:12.371Z,4.13
2018-11-02T13:40:41.256Z,4.13
2018-11-02T13:43:18.157Z,4.70
2018-11-02T13:45:46.710Z,3.67
2018-11-02T13:48:15.619Z,5.03
2018-11-02T13:50:44.340Z,3.10
2018-11-02T13:53:13.136Z,3.27
2018-11-02T13:55:41.766Z,4.10
2018-11-02T13:58:10.537Z,5.73
2018-11-02T14:00:39.215Z,6.03
2018-11-02T14:03:15.495Z,4.70
2018-11-02T14:05:44.236Z,5.30
2018-11-02T14:08:12.904Z,4.87
2018-11-02T14:10:41.576Z,5.93
2018-11-02T14:13:11.308Z,6.87
2018-11-02T14:15:40.057Z,7.10
2018-11-02T14:18:08.682Z,6.50
2018-11-02T14:20:37.324Z,6.80
2018-11-02T14:23:13.724Z,5.03
2018-11-02T14:25:42.382Z,5.17
2018-11-02T14:28:11.146Z,7.77
2018-11-02T14:30:39.895Z,6.30
2018-11-02T14:33:15.887Z,8.80
2018-11-02T14:35:44.636Z,7.53
2018-11-02T14:38:13.264Z,8.23
2018-11-02T14:40:42.111Z,8.17
2018-11-02T14:43:10.811Z,7.73
2018-11-02T14:45:39.726Z,9.63
2018-11-02T14:48:09.254Z,10.73
2018-11-02T14:50:38.024Z,9.23
2018-11-02T14:53:20.060Z,11.07
2018-11-02T14:55:48.675Z,10.37
2018-11-02T14:58:17.266Z,9.00
2018-11-02T15:00:45.948Z,10.30
2018-11-02T15:03:22.426Z,8.47
2018-11-02T15:05:51.143Z,7.80
2018-11-02T15:08:19.981Z,9.80
2018-11-02T15:10:48.867Z,8.13
2018-11-02T15:13:25.368Z,8.60
2018-11-02T15:15:54.052Z,8.43
2018-11-02T15:18:22.648Z,8.57
2018-11-02T15:20:51.383Z,7.97
2018-11-02T15:23:33.750Z,8.43
2018-11-02T15:26:02.455Z,8.60
2018-11-02T15:28:31.073Z,8.97
2018-11-02T15:30:59.720Z,7.93
2018-11-02T15:33:28.429Z,8.80
2018-11-02T15:35:57.190Z,7.47
2018-11-02T15:38:25.898Z,7.53
2018-11-02T15:40:54.522Z,8.20
2018-11-02T15:43:23.162Z,9.00
2018-11-02T15:45:51.871Z,7.67
2018-11-02T15:48:20.624Z,7.73
2018-11-02T15:50:49.358Z,7.83
2018-11-02T15:53:18.082Z,6.10
2018-11-02T15:55:46.672Z,7.60
2018-11-02T15:58:15.472Z,7.50
2018-11-02T16:00:44.283Z,7.20
2018-11-02T16:03:13.045Z,6.20
2018-11-02T16:05:41.770Z,6.13
2018-11-02T16:08:10.373Z,8.00
2018-11-02T16:10:39.081Z,7.47
2018-11-02T16:13:07.769Z,6.73
2018-11-02T16:15:36.842Z,6.70
2018-11-02T16:18:05.647Z,7.10
2018-11-02T16:20:34.423Z,6.63
2018-11-02T16:23:03.043Z,8.17
2018-11-02T16:25:31.756Z,7.63
2018-11-02T16:28:00.444Z,8.00
2018-11-02T16:30:29.410Z,7.23
2018-11-02T16:32:58.136Z,8.00
2018-11-02T16:35:26.777Z,7.27
2018-11-02T16:37:55.463Z,6.97
2018-11-02T16:40:24.094Z,7.50
2018-11-02T16:42:52.796Z,8.30
2018-11-02T16:45:21.479Z,8.30
2018-11-02T16:47:50.257Z,7.70
2018-11-02T16:50:19.109Z,7.13
2018-11-02T16:52:47.699Z,7.60
2018-11-02T16:55:16.486Z,7.30
2018-11-02T16:57:45.311Z,7.63
2018-11-02T17:00:16.295Z,8.13
2018-11-02T17:02:46.151Z,8.40
2018-11-02T17:05:14.813Z,7.40
2018-11-02T17:07:43.991Z,7.90
2018-11-02T17:10:13.778Z,8.13
2018-11-02T17:12:42.963Z,7.80
2018-11-02T17:15:12.596Z,9.10
2018-11-02T17:17:41.274Z,7.90
2018-11-02T17:20:13.601Z,8.17
2018-11-02T17:22:42.356Z,10.77
2018-11-02T17:25:11.877Z,7.30
2018-11-02T17:27:41.187Z,7.30
2018-11-02T17:30:13.465Z,7.17
2018-11-02T17:32:42.101Z,9.33
2018-11-02T17:35:11.477Z,7.70
2018-11-02T17:37:40.211Z,7.80
2018-11-02T17:40:11.193Z,6.10
2018-11-02T17:42:40.132Z,8.40
2018-11-02T17:45:09.811Z,7.70
2018-11-02T17:47:39.583Z,8.40
2018-11-02T17:50:09.757Z,8.97
2018-11-02T17:52:38.497Z,8.77
2018-11-02T17:55:07.096Z,8.20
2018-11-02T17:57:36.076Z,8.63
2018-11-02T18:00:05.238Z,8.10
2018-11-02T18:02:34.031Z,8.37
2018-11-02T18:05:03.228Z,8.17
2018-11-02T18:07:31.957Z,7.20
2018-11-02T18:10:00.586Z,8.60
2018-11-02T18:12:29.413Z,8.23
2018-11-02T18:14:58.136Z,8.10
2018-11-02T18:17:27.136Z,7.43
2018-11-02T18:19:56.071Z,7.00
2018-11-02T18:22:25.613Z,8.00
2018-11-02T18:24:54.455Z,8.30
2018-11-02T18:27:23.833Z,7.53
2018-11-02T18:29:52.832Z,6.93
2018-11-02T18:32:21.832Z,7.00
2018-11-02T18:34:50.972Z,7.20
2018-11-02T18:37:19.859Z,6.63
2018-11-02T18:39:48.823Z,6.83
2018-11-02T18:42:17.498Z,7.37
2018-11-02T18:44:46.307Z,8.73
2018-11-02T18:47:15.326Z,7.23
2018-11-02T18:49:44.396Z,6.77
2018-11-02T18:52:13.963Z,7.00
2018-11-02T18:54:43.084Z,7.47
2018-11-02T18:57:11.908Z,6.87
2018-11-02T18:59:40.872Z,7.90
2018-11-02T19:02:09.939Z,6.80
2018-11-02T19:04:39.008Z,7.30
2018-11-02T19:07:08.244Z,6.70
2018-11-02T19:09:37.461Z,5.77
2018-11-02T19:12:06.665Z,7.00
2018-11-02T19:14:35.775Z,6.53
2018-11-02T19:17:04.947Z,8.03
2018-11-02T19:19:34.211Z,6.97
2018-11-02T19:22:03.303Z,6.90
2018-11-02T19:24:32.465Z,7.03
2018-11-02T19:27:02.081Z,7.50
2018-11-02T19:29:31.290Z,6.77
2018-11-02T19:32:00.865Z,8.10
2018-11-02T19:34:30.154Z,8.80
2018-11-02T19:36:59.298Z,7.53
2018-11-02T19:39:28.565Z,8.17
2018-11-02T19:41:57.810Z,8.33
2018-11-02T19:44:27.085Z,10.40
2018-11-02T19:46:56.388Z,7.87
2018-11-02T19:49:25.914Z,9.10
2018-11-02T19:51:54.975Z,10.20
2018-11-02T19:54:25.086Z,11.93
2018-11-02T19:56:54.256Z,9.27
2018-11-02T19:59:23.309Z,9.77
2018-11-02T20:01:52.112Z,11.20
2018-11-02T20:04:21.440Z,9.40
2018-11-02T20:06:50.546Z,11.37
2018-11-02T20:09:19.496Z,12.53
2018-11-02T20:11:49.077Z,9.50
2018-11-02T20:14:18.119Z,11.83
2018-11-02T20:16:47.091Z,11.70
2018-11-02T20:19:16.137Z,10.93
2018-11-02T20:21:44.893Z,12.83
2018-11-02T20:24:14.042Z,11.40
2018-11-02T20:26:43.471Z,14.00
2018-11-02T20:29:12.526Z,11.37
2018-11-02T20:31:41.222Z,13.07
2018-11-02T20:34:10.281Z,11.47
2018-11-02T20:36:39.518Z,12.30
2018-11-02T20:39:11.107Z,12.77
2018-11-02T20:41:40.081Z,11.30
2018-11-02T20:44:08.968Z,11.00
2018-11-02T20:46:38.001Z,11.10
2018-11-02T20:49:06.973Z,10.10
2018-11-02T20:51:36.088Z,11.17
2018-11-02T20:54:05.262Z,10.97
2018-11-02T20:56:34.459Z,10.60
2018-11-02T20:59:03.115Z,10.87
2018-11-02T21:01:32.208Z,13.20
2018-11-02T21:04:00.939Z,13.00
2018-11-02T21:06:30.338Z,11.37
2018-11-02T21:08:59.262Z,10.73
2018-11-02T21:11:28.024Z,10.90
2018-11-02T21:13:56.720Z,12.50
2018-11-02T21:16:26.482Z,10.97
2018-11-02T21:18:55.326Z,10.07
2018-11-02T21:21:24.242Z,10.70
2018-11-02T21:23:53.183Z,9.60
2018-11-02T21:26:21.861Z,10.57
2018-11-02T21:28:50.638Z,9.67
2018-11-02T21:31:19.192Z,7.53
2018-11-02T21:33:47.913Z,8.73
2018-11-02T21:36:16.455Z,14.00
2018-11-02T21:38:45.245Z,10.57
2018-11-02T21:41:14.083Z,10.70
2018-11-02T21:43:42.755Z,12.43
2018-11-02T21:46:11.452Z,10.37
2018-11-02T21:48:40.914Z,10.60
2018-11-02T21:51:09.554Z,9.47
2018-11-02T21:53:38.413Z,10.40
2018-11-02T21:56:07.110Z,10.50
2018-11-02T21:58:35.978Z,9.43
2018-11-02T22:01:04.891Z,11.50
2018-11-02T22:03:33.645Z,10.47
2018-11-02T22:06:02.473Z,10.77
2018-11-02T22:08:31.146Z,11.43
2018-11-02T22:10:59.799Z,9.70
2018-11-02T22:13:28.436Z,9.80
2018-11-02T22:15:57.272Z,9.80
2018-11-02T22:18:26.059Z,9.90
2018-11-02T22:20:54.760Z,10.67
2018-11-02T22:23:23.359Z,9.30
2018-11-02T22:25:55.495Z,10.20
2018-11-02T22:28:24.261Z,12.30
2018-11-02T22:30:52.933Z,12.93
2018-11-02T22:33:21.647Z,10.20
2018-11-02T22:35:50.321Z,12.33
2018-11-02T22:38:18.949Z,13.57
2018-11-02T22:40:47.678Z,10.90
2018-11-02T22:43:16.506Z,14.80
2018-11-02T22:45:45.232Z,12.13
2018-11-02T22:48:18.949Z,12.20
2018-11-02T22:50:47.684Z,13.10
2018-11-02T22:53:16.323Z,11.50
2018-11-02T22:55:44.967Z,12.00
2018-11-02T22:58:13.767Z,12.50
2018-11-02T23:00:47.668Z,11.53
2018-11-02T23:03:16.430Z,13.87
2018-11-02T23:05:45.294Z,12.33
2018-11-02T23:08:13.797Z,13.67
2018-11-02T23:10:42.421Z,15.40
2018-11-02T23:13:11.844Z,14.87
2018-11-02T23:15:40.425Z,15.20
2018-11-02T23:18:09.083Z,15.40
2018-11-02T23:20:37.783Z,16.00
2018-11-02T23:23:06.610Z,15.10
2018-11-02T23:25:35.247Z,17.27
2018-11-02T23:28:04.036Z,15.37
2018-11-02T23:30:32.796Z,15.87
2018-11-02T23:33:01.506Z,15.70
2018-11-02T23:35:30.197Z,16.63
2018-11-02T23:37:58.874Z,17.10
2018-11-02T23:40:27.514Z,13.57
2018-11-02T23:42:56.180Z,16.70
2018-11-02T23:45:24.879Z,16.67
2018-11-02T23:48:28.227Z,17.40
2018-11-02T23:50:56.908Z,16.40
2018-11-02T23:53:25.723Z,16.93
2018-11-02T23:55:54.369Z,15.97
2018-11-02T23:58:23.119Z,14.90
